Time;durP1;ratioP1;P1;durP2;ratioP2;P2;SDS_P1;SDS_P2;PMS_P1;PMS_P2;Temp;Humidity;BMP_temperature;BMP_pressure;BME280_temperature;BME280_humidity;BME280_pressure;Samples;Min_cycle;Max_cycle;Signal;HPM_P1;HPM_P2
2021/09/05 00:01:58;;;;;;;15.93;13.02;;;15.70;94.90;;;;;;5072481;28;20115;-56
2021/09/05 00:04:24;;;;;;;14.23;12.73;;;15.60;95.00;;;;;;5072687;28;20068;-54
2021/09/05 00:06:50;;;;;;;16.48;12.70;;;15.60;95.00;;;;;;5072365;28;20060;-57
2021/09/05 00:09:15;;;;;;;13.68;12.20;;;15.40;95.30;;;;;;5092341;28;20106;-56
2021/09/05 00:11:41;;;;;;;14.50;11.68;;;15.40;95.60;;;;;;5092545;28;20502;-55
2021/09/05 00:14:06;;;;;;;13.57;12.13;;;15.40;95.50;;;;;;5092361;28;20036;-57
2021/09/05 00:16:32;;;;;;;13.23;11.27;;;15.50;95.40;;;;;;5092229;28;20060;-54
2021/09/05 00:18:58;;;;;;;12.85;11.27;;;15.50;95.30;;;;;;5092434;28;20032;-57
2021/09/05 00:21:24;;;;;;;17.73;12.23;;;15.50;95.40;;;;;;5091531;28;20036;-54
2021/09/05 00:23:50;;;;;;;14.10;12.52;;;15.50;95.30;;;;;;5091999;28;20056;-57
2021/09/05 00:26:15;;;;;;;13.32;11.77;;;15.40;95.40;;;;;;5087035;28;20063;-57
2021/09/05 00:28:42;;;;;;;13.85;11.80;;;15.40;95.60;;;;;;5086004;28;20104;-56
2021/09/05 00:31:08;;;;;;;14.25;12.57;;;15.30;95.70;;;;;;5090487;28;20093;-57
2021/09/05 00:33:34;;;;;;;14.57;12.50;;;15.40;95.70;;;;;;5086961;28;20487;-58
2021/09/05 00:35:59;;;;;;;14.68;12.05;;;15.40;95.60;;;;;;5089084;28;20028;-57
2021/09/05 00:38:25;;;;;;;14.80;13.05;;;15.40;95.60;;;;;;5084183;28;20414;-55
2021/09/05 00:40:51;;;;;;;14.45;12.88;;;15.40;95.60;;;;;;5088044;28;20546;-58
2021/09/05 00:43:16;;;;;;;17.95;13.98;;;15.40;95.60;;;;;;5083143;28;20395;-58
2021/09/05 00:45:42;;;;;;;18.10;15.43;;;15.40;95.50;;;;;;5083708;28;20024;-55
2021/09/05 00:48:07;;;;;;;18.67;16.17;;;15.30;95.40;;;;;;5072203;28;20037;-55
2021/09/05 00:50:35;;;;;;;21.65;15.50;;;15.00;95.60;;;;;;5092760;28;20115;-56
2021/09/05 00:53:00;;;;;;;20.63;15.20;;;15.00;95.60;;;;;;5084313;28;20391;-58
2021/09/05 00:55:26;;;;;;;18.35;14.65;;;15.00;95.90;;;;;;5089406;28;20024;-56
2021/09/05 00:57:52;;;;;;;18.08;14.60;;;15.00;96.00;;;;;;5089786;28;20039;-55
2021/09/05 01:00:19;;;;;;;17.83;13.95;;;15.00;96.00;;;;;;5086404;28;20029;-59
2021/09/05 01:02:46;;;;;;;18.30;14.45;;;15.00;96.10;;;;;;5088499;28;20443;-58
2021/09/05 01:05:12;;;;;;;15.95;13.20;;;15.00;96.20;;;;;;5081443;28;20028;-56
2021/09/05 01:07:39;;;;;;;19.52;15.32;;;15.10;96.20;;;;;;5086134;28;20527;-54
2021/09/05 01:10:05;;;;;;;18.85;15.45;;;15.10;95.90;;;;;;5091929;28;20043;-56
2021/09/05 01:12:30;;;;;;;19.25;15.00;;;15.10;95.80;;;;;;5088669;28;20031;-56
2021/09/05 01:14:56;;;;;;;19.75;14.48;;;15.10;95.90;;;;;;5091989;28;20040;-56
2021/09/05 01:17:22;;;;;;;16.73;14.10;;;15.10;96.00;;;;;;5092968;28;20116;-55
2021/09/05 01:19:48;;;;;;;16.02;14.35;;;15.10;95.90;;;;;;5091585;28;20106;-54
2021/09/05 01:22:13;;;;;;;17.55;14.90;;;15.10;95.70;;;;;;5092951;28;20024;-59
2021/09/05 01:24:39;;;;;;;24.70;19.13;;;15.20;95.90;;;;;;5092853;28;20020;-58
2021/09/05 01:27:05;;;;;;;60.08;37.95;;;15.10;95.90;;;;;;5092607;28;20039;-55
2021/09/05 01:29:30;;;;;;;45.88;30.75;;;15.10;96.10;;;;;;5093376;28;20125;-55
2021/09/05 01:31:56;;;;;;;27.08;18.63;;;15.20;96.20;;;;;;5092592;28;20379;-55
2021/09/05 01:34:24;;;;;;;20.83;16.58;;;15.20;96.10;;;;;;5094533;28;20036;-55
2021/09/05 01:36:51;;;;;;;20.35;16.73;;;15.20;96.10;;;;;;5078956;28;20483;-57
2021/09/05 01:39:18;;;;;;;18.60;15.43;;;15.10;96.10;;;;;;5094650;28;20037;-55
2021/09/05 01:41:44;;;;;;;19.40;15.60;;;15.00;96.30;;;;;;5094813;28;20518;-57
2021/09/05 01:44:16;;;;;;;19.17;16.00;;;14.90;96.60;;;;;;5096373;28;20051;-52
2021/09/05 01:46:42;;;;;;;20.75;16.75;;;14.90;96.60;;;;;;5096116;28;20035;-55
2021/09/05 01:49:08;;;;;;;19.17;15.32;;;14.80;96.30;;;;;;5096423;28;20024;-57
2021/09/05 01:51:34;;;;;;;22.58;16.80;;;14.80;96.60;;;;;;5096108;28;20068;-55
2021/09/05 01:54:00;;;;;;;20.63;16.48;;;14.80;96.40;;;;;;5077377;28;20043;-57
2021/09/05 01:56:33;;;;;;;20.42;15.68;;;14.80;96.60;;;;;;5096245;28;20094;-58
2021/09/05 01:59:02;;;;;;;18.52;15.55;;;14.70;96.70;;;;;;5095746;28;20437;-53
2021/09/05 02:01:29;;;;;;;19.75;15.70;;;14.70;96.70;;;;;;5096641;28;20055;-56
2021/09/05 02:03:55;;;;;;;17.15;14.85;;;14.70;96.80;;;;;;5099031;28;20119;-58
2021/09/05 02:06:21;;;;;;;18.25;14.70;;;14.70;96.90;;;;;;5093158;28;20395;-57
2021/09/05 02:08:47;;;;;;;15.85;13.73;;;14.70;97.00;;;;;;5094816;28;20032;-56
2021/09/05 02:11:14;;;;;;;18.92;15.15;;;14.70;97.00;;;;;;5094284;28;20036;-54
2021/09/05 02:13:40;;;;;;;18.42;14.40;;;14.70;96.80;;;;;;5094189;28;20042;-55
2021/09/05 02:16:07;;;;;;;17.35;13.98;;;14.70;96.80;;;;;;5094917;28;20518;-55
2021/09/05 02:18:33;;;;;;;17.08;13.10;;;14.70;97.00;;;;;;5094230;28;20028;-58
2021/09/05 02:20:58;;;;;;;17.33;14.18;;;14.70;97.00;;;;;;5093432;28;20050;-58
2021/09/05 02:23:24;;;;;;;17.13;14.70;;;14.70;97.10;;;;;;5094436;28;20035;-55
2021/09/05 02:25:50;;;;;;;18.02;13.43;;;14.70;97.10;;;;;;5094894;28;20361;-55
2021/09/05 02:28:15;;;;;;;18.67;13.90;;;14.70;96.90;;;;;;5076410;28;20028;-54
2021/09/05 02:30:41;;;;;;;16.05;13.52;;;14.70;96.90;;;;;;5094273;28;20025;-55
2021/09/05 02:33:06;;;;;;;16.67;13.73;;;14.70;96.90;;;;;;5094292;28;20039;-56
2021/09/05 02:35:32;;;;;;;17.15;13.95;;;14.70;96.80;;;;;;5094512;28;20063;-56
2021/09/05 02:37:58;;;;;;;16.25;13.57;;;14.70;96.70;;;;;;5094507;28;20111;-54
2021/09/05 02:40:23;;;;;;;17.85;13.40;;;14.70;96.80;;;;;;5094968;28;20051;-54
2021/09/05 02:42:49;;;;;;;17.45;14.88;;;14.70;96.70;;;;;;5093261;28;20036;-57
2021/09/05 02:45:15;;;;;;;20.45;14.50;;;14.70;96.70;;;;;;5094129;28;20028;-58
2021/09/05 02:47:40;;;;;;;16.42;13.90;;;14.70;96.60;;;;;;5094644;28;20111;-55
2021/09/05 02:50:07;;;;;;;15.43;13.23;;;14.70;96.70;;;;;;5094114;28;20028;-54
2021/09/05 02:52:33;;;;;;;16.10;13.48;;;14.70;96.70;;;;;;5094212;28;20031;-55
2021/09/05 02:54:58;;;;;;;15.25;13.25;;;14.60;96.70;;;;;;5094019;28;20063;-53
2021/09/05 02:57:24;;;;;;;17.17;13.63;;;14.60;96.70;;;;;;5094353;28;20035;-55
2021/09/05 02:59:50;;;;;;;15.20;13.10;;;14.60;96.80;;;;;;5094331;28;20024;-54
2021/09/05 03:02:15;;;;;;;17.17;14.30;;;14.60;96.80;;;;;;5093130;28;20372;-57
2021/09/05 03:04:41;;;;;;;15.60;13.20;;;14.60;96.70;;;;;;5094262;28;20406;-56
2021/09/05 03:07:06;;;;;;;17.27;14.52;;;14.50;96.80;;;;;;5094254;28;20035;-56
2021/09/05 03:09:33;;;;;;;15.40;13.80;;;14.50;96.90;;;;;;5093679;28;20028;-57
2021/09/05 03:11:58;;;;;;;17.45;13.98;;;14.40;97.00;;;;;;5093432;28;20403;-52
2021/09/05 03:14:24;;;;;;;15.75;14.10;;;14.40;96.90;;;;;;5085028;28;20036;-55
2021/09/05 03:16:49;;;;;;;16.35;13.95;;;14.30;97.10;;;;;;5093912;28;20025;-52
2021/09/05 03:19:15;;;;;;;18.58;14.00;;;14.10;97.60;;;;;;5093128;28;20043;-55
2021/09/05 03:21:41;;;;;;;17.83;14.65;;;14.10;97.40;;;;;;5072836;28;20119;-55
2021/09/05 03:24:07;;;;;;;17.38;14.25;;;14.10;97.50;;;;;;5072423;28;20039;-57
2021/09/05 03:26:34;;;;;;;17.80;13.73;;;14.10;97.60;;;;;;5073133;28;20024;-54
2021/09/05 03:29:03;;;;;;;20.65;14.40;;;14.10;97.60;;;;;;5072807;28;20653;-57
2021/09/05 03:31:28;;;;;;;17.00;13.95;;;14.10;97.50;;;;;;5073310;28;20040;-56
2021/09/05 03:33:54;;;;;;;16.35;13.32;;;14.20;97.60;;;;;;5072660;28;20036;-57
2021/09/05 03:36:20;;;;;;;16.15;14.45;;;14.20;97.60;;;;;;5072830;28;20507;-56
2021/09/05 03:38:45;;;;;;;15.85;13.10;;;14.20;97.50;;;;;;5072894;28;20037;-56
2021/09/05 03:41:11;;;;;;;16.92;13.68;;;14.20;97.40;;;;;;5073023;28;20438;-55
2021/09/05 03:43:37;;;;;;;17.45;14.65;;;14.20;97.40;;;;;;5072231;28;20152;-54
2021/09/05 03:46:02;;;;;;;21.08;17.10;;;14.10;97.40;;;;;;5072926;28;20504;-56
2021/09/05 03:48:28;;;;;;;21.55;16.33;;;13.80;97.70;;;;;;5072920;28;20051;-57
2021/09/05 03:50:54;;;;;;;25.13;16.15;;;13.60;98.10;;;;;;5073245;28;20376;-55
2021/09/05 03:53:19;;;;;;;23.38;16.20;;;13.50;98.50;;;;;;5072402;28;20126;-54
2021/09/05 03:55:45;;;;;;;22.42;17.48;;;13.30;98.80;;;;;;5071787;28;20028;-57
2021/09/05 03:58:10;;;;;;;22.63;16.38;;;13.20;99.10;;;;;;5072692;28;20033;-55
2021/09/05 04:00:36;;;;;;;20.08;15.73;;;13.10;99.30;;;;;;5072710;28;20122;-54
2021/09/05 04:03:02;;;;;;;18.23;15.98;;;13.00;99.40;;;;;;5072162;28;20029;-57
2021/09/05 04:05:28;;;;;;;20.77;15.93;;;13.00;99.50;;;;;;5072734;28;20055;-56
2021/09/05 04:10:28;;;;;;;;;;;13.10;99.50;;;;;;5092765;28;20028;-53
2021/09/05 04:12:54;;;;;;;18.98;14.52;;;13.10;99.50;;;;;;5092360;28;19918;-55
2021/09/05 04:15:20;;;;;;;20.52;14.63;;;13.20;99.40;;;;;;5093066;28;20040;-55
2021/09/05 04:17:50;;;;;;;22.65;15.30;;;13.30;99.20;;;;;;5092552;28;20467;-53
2021/09/05 04:20:16;;;;;;;20.33;15.20;;;13.40;99.00;;;;;;5083575;28;20036;-56
2021/09/05 04:22:42;;;;;;;20.15;15.25;;;13.40;98.80;;;;;;5071993;28;20029;-57
2021/09/05 04:25:08;;;;;;;21.30;15.80;;;13.50;98.70;;;;;;5054595;28;20040;-58
2021/09/05 04:27:34;;;;;;;18.30;14.43;;;13.60;98.50;;;;;;5072600;28;20029;-58
2021/09/05 04:30:00;;;;;;;19.20;14.20;;;13.70;98.40;;;;;;5072215;28;20024;-55
2021/09/05 04:32:26;;;;;;;18.67;14.98;;;13.70;98.20;;;;;;5071981;28;20135;-55
2021/09/05 04:34:51;;;;;;;19.90;15.30;;;13.70;98.10;;;;;;5072214;28;20050;-55
2021/09/05 04:37:18;;;;;;;17.40;14.20;;;13.70;98.00;;;;;;5072110;28;20392;-55
2021/09/05 04:39:45;;;;;;;18.38;14.93;;;13.70;97.90;;;;;;5072174;28;20039;-56
2021/09/05 04:42:11;;;;;;;17.23;13.48;;;13.80;97.90;;;;;;5074041;28;20128;-58
2021/09/05 04:44:38;;;;;;;17.52;14.10;;;13.80;97.80;;;;;;5092439;28;20462;-56
2021/09/05 04:47:05;;;;;;;16.05;13.23;;;13.80;97.70;;;;;;5092744;28;20024;-55
2021/09/05 04:49:31;;;;;;;17.67;14.85;;;13.80;97.70;;;;;;5092766;28;20085;-54
2021/09/05 04:51:56;;;;;;;17.02;13.73;;;13.80;97.60;;;;;;5091844;28;20502;-55
2021/09/05 04:54:22;;;;;;;17.15;13.35;;;13.80;97.60;;;;;;5091846;28;20072;-56
2021/09/05 04:56:47;;;;;;;18.40;15.13;;;13.80;97.60;;;;;;5092269;28;20050;-57
2021/09/05 04:59:13;;;;;;;16.95;14.68;;;13.80;97.60;;;;;;5092049;28;20474;-54
2021/09/05 05:01:39;;;;;;;14.73;12.95;;;13.90;97.50;;;;;;5073987;28;20402;-56
2021/09/05 05:04:04;;;;;;;20.50;13.32;;;13.90;97.50;;;;;;5092539;28;20028;-58
2021/09/05 05:06:30;;;;;;;14.52;13.02;;;13.90;97.50;;;;;;5092770;28;20476;-55
2021/09/05 05:08:56;;;;;;;17.80;14.75;;;13.90;97.50;;;;;;5096490;28;20067;-55
2021/09/05 05:11:22;;;;;;;15.73;13.35;;;13.80;97.50;;;;;;5096344;28;20052;-56
2021/09/05 05:13:47;;;;;;;14.07;12.45;;;13.80;97.40;;;;;;5095846;28;20059;-54
2021/09/05 05:16:13;;;;;;;16.48;13.15;;;13.90;97.40;;;;;;5096449;28;20081;-56
2021/09/05 05:18:39;;;;;;;15.30;13.45;;;13.90;97.40;;;;;;5095967;28;20028;-58
2021/09/05 05:21:04;;;;;;;17.27;14.00;;;14.00;97.20;;;;;;5080292;28;20047;-53
2021/09/05 05:23:30;;;;;;;16.60;13.40;;;14.00;97.20;;;;;;5075439;28;20083;-58
2021/09/05 05:25:57;;;;;;;14.52;12.52;;;14.00;97.10;;;;;;5075593;28;20032;-52
2021/09/05 05:28:22;;;;;;;16.40;14.18;;;13.90;97.10;;;;;;5075832;28;20028;-55
2021/09/05 05:30:48;;;;;;;19.05;13.75;;;13.90;97.20;;;;;;5075117;28;20450;-53
2021/09/05 05:33:14;;;;;;;15.65;13.70;;;13.90;97.20;;;;;;5075276;28;20098;-57
2021/09/05 05:35:39;;;;;;;17.13;13.50;;;13.90;97.30;;;;;;5075508;28;20076;-58
2021/09/05 05:38:05;;;;;;;17.40;14.45;;;14.00;97.20;;;;;;5075234;28;20051;-52
2021/09/05 05:40:35;;;;;;;19.05;14.65;;;14.00;97.10;;;;;;5075182;28;20045;-56
2021/09/05 05:43:01;;;;;;;15.30;13.70;;;14.00;97.20;;;;;;5083862;28;20043;-58
2021/09/05 05:45:26;;;;;;;17.15;14.70;;;14.00;97.20;;;;;;5095585;28;20036;-56
2021/09/05 05:47:52;;;;;;;17.00;14.23;;;14.10;97.20;;;;;;5095654;28;20426;-55
2021/09/05 05:50:17;;;;;;;18.23;14.90;;;14.10;97.10;;;;;;5095553;28;20092;-58
2021/09/05 05:52:43;;;;;;;19.80;14.85;;;14.00;97.10;;;;;;5077123;28;20503;-60
2021/09/05 05:55:09;;;;;;;17.95;14.98;;;14.10;97.10;;;;;;5095854;28;20039;-61
2021/09/05 05:57:35;;;;;;;17.05;13.45;;;13.90;97.50;;;;;;5095739;28;20032;-59
2021/09/05 06:00:01;;;;;;;49.58;33.17;;;13.90;97.60;;;;;;5095098;28;20498;-60
2021/09/05 06:02:26;;;;;;;43.83;27.73;;;13.80;97.80;;;;;;5094931;28;20045;-59
2021/09/05 06:04:52;;;;;;;23.35;18.00;;;13.80;97.90;;;;;;5095082;28;20031;-58
2021/09/05 06:07:17;;;;;;;16.23;13.75;;;13.80;98.10;;;;;;5094813;28;20026;-59
2021/09/05 06:09:43;;;;;;;19.25;14.88;;;13.80;98.10;;;;;;5095282;28;20078;-60
2021/09/05 06:12:10;;;;;;;15.80;13.98;;;13.90;97.90;;;;;;5095120;28;20028;-59
2021/09/05 06:14:36;;;;;;;20.40;15.75;;;13.90;98.00;;;;;;5095331;28;20028;-61
2021/09/05 06:17:03;;;;;;;19.25;16.38;;;13.90;98.10;;;;;;5094662;28;20028;-60
2021/09/05 06:19:28;;;;;;;19.65;15.55;;;13.90;98.10;;;;;;5091158;28;20132;-58
2021/09/05 06:21:54;;;;;;;24.05;16.85;;;13.90;97.90;;;;;;5074355;28;20147;-61
2021/09/05 06:24:19;;;;;;;20.55;15.90;;;14.00;97.90;;;;;;5074401;28;20040;-60
2021/09/05 06:26:45;;;;;;;18.85;15.07;;;14.00;97.80;;;;;;5074575;28;20031;-60
2021/09/05 06:29:11;;;;;;;17.50;14.68;;;14.10;97.90;;;;;;5074921;28;20031;-58
2021/09/05 06:31:36;;;;;;;20.65;15.18;;;14.10;97.70;;;;;;5084252;28;20111;-58
2021/09/05 06:34:02;;;;;;;19.73;14.85;;;14.20;97.90;;;;;;5094296;28;20426;-58
2021/09/05 06:36:28;;;;;;;18.20;14.93;;;14.30;97.70;;;;;;5094261;28;20032;-59
2021/09/05 06:38:53;;;;;;;19.77;14.95;;;14.40;97.60;;;;;;5094452;28;20032;-59
2021/09/05 06:41:19;;;;;;;16.48;13.98;;;14.40;97.50;;;;;;5094342;28;20039;-59
2021/09/05 06:43:44;;;;;;;18.63;15.45;;;14.50;97.40;;;;;;5094057;28;20178;-60
2021/09/05 06:46:10;;;;;;;18.63;14.55;;;14.60;97.10;;;;;;5094265;28;20032;-60
2021/09/05 06:48:35;;;;;;;19.63;15.95;;;14.70;97.10;;;;;;5095071;28;20123;-60
2021/09/05 06:51:01;;;;;;;18.90;15.23;;;14.80;97.10;;;;;;5094234;28;20028;-56
2021/09/05 06:53:27;;;;;;;21.10;14.73;;;14.90;96.90;;;;;;5093556;28;20035;-59
2021/09/05 06:55:52;;;;;;;25.13;17.10;;;14.90;96.90;;;;;;5076029;28;20430;-60
2021/09/05 06:58:18;;;;;;;21.10;16.48;;;15.00;96.90;;;;;;5094089;28;20399;-58
2021/09/05 07:00:43;;;;;;;21.08;15.65;;;15.00;97.10;;;;;;5094465;28;20524;-58
2021/09/05 07:03:09;;;;;;;21.02;15.48;;;15.00;97.00;;;;;;5093796;28;20127;-60
2021/09/05 07:05:34;;;;;;;19.85;15.27;;;15.20;96.90;;;;;;5093825;28;20082;-56
2021/09/05 07:08:00;;;;;;;29.05;16.92;;;15.30;96.70;;;;;;5094144;28;20039;-59
2021/09/05 07:10:26;;;;;;;21.77;17.15;;;15.50;96.50;;;;;;5093952;28;20119;-58
2021/09/05 07:12:52;;;;;;;21.20;17.30;;;15.50;96.20;;;;;;5093361;28;20028;-60
2021/09/05 07:15:18;;;;;;;22.17;15.77;;;15.60;96.10;;;;;;5093971;28;20036;-58
2021/09/05 07:17:43;;;;;;;22.00;17.58;;;15.70;96.00;;;;;;5093563;28;20032;-60
2021/09/05 07:20:09;;;;;;;21.50;17.05;;;15.80;96.00;;;;;;5085267;28;20085;-58
2021/09/05 07:22:35;;;;;;;20.30;16.45;;;15.70;96.10;;;;;;5072546;28;20499;-60
2021/09/05 07:25:02;;;;;;;23.83;17.95;;;15.80;96.00;;;;;;5073810;28;20028;-59
2021/09/05 07:27:29;;;;;;;19.13;15.35;;;15.90;95.70;;;;;;5074163;28;20031;-59
2021/09/05 07:29:54;;;;;;;31.10;20.23;;;16.00;95.60;;;;;;5074210;28;20391;-60
2021/09/05 07:32:20;;;;;;;31.55;21.65;;;16.10;95.50;;;;;;5073286;28;20043;-59
2021/09/05 07:34:46;;;;;;;20.90;16.92;;;16.10;95.30;;;;;;5073150;28;20036;-61
2021/09/05 07:37:12;;;;;;;21.50;15.65;;;16.30;95.10;;;;;;5055181;28;20727;-61
2021/09/05 07:39:38;;;;;;;22.30;16.05;;;16.30;95.10;;;;;;5073561;28;20056;-60
2021/09/05 07:42:04;;;;;;;22.20;16.17;;;16.30;95.50;;;;;;5074637;28;20116;-60
2021/09/05 07:44:29;;;;;;;24.88;17.63;;;16.40;95.30;;;;;;5094508;28;20487;-60
2021/09/05 07:46:55;;;;;;;26.50;18.90;;;16.50;95.20;;;;;;5075906;28;20029;-60
2021/09/05 07:49:20;;;;;;;25.35;18.50;;;16.70;95.00;;;;;;5093790;28;20067;-59
2021/09/05 07:51:46;;;;;;;22.60;16.05;;;16.70;94.90;;;;;;5075542;28;20043;-60
2021/09/05 07:54:12;;;;;;;20.70;16.13;;;16.70;94.90;;;;;;5093656;28;20039;-62
2021/09/05 07:56:37;;;;;;;18.98;14.85;;;16.70;94.90;;;;;;5093582;28;20419;-59
2021/09/05 07:59:03;;;;;;;22.20;16.38;;;16.70;95.00;;;;;;5094133;28;20051;-60
2021/09/05 08:01:28;;;;;;;21.10;16.35;;;16.80;95.00;;;;;;5094406;28;20031;-60
2021/09/05 08:03:54;;;;;;;19.65;14.57;;;16.80;94.80;;;;;;5075635;28;20068;-60
2021/09/05 08:06:20;;;;;;;21.10;15.93;;;16.90;94.80;;;;;;5093613;28;20063;-60
2021/09/05 08:08:45;;;;;;;23.52;16.67;;;16.90;95.00;;;;;;5093168;28;20043;-59
2021/09/05 08:11:11;;;;;;;19.83;14.35;;;17.00;95.00;;;;;;5093060;28;20428;-58
2021/09/05 08:13:37;;;;;;;25.75;18.13;;;17.10;94.80;;;;;;5093601;28;20021;-59
2021/09/05 08:16:03;;;;;;;21.67;16.58;;;17.10;94.80;;;;;;5096229;28;20400;-60
2021/09/05 08:18:38;;;;;;;20.83;14.77;;;17.30;94.70;;;;;;5093268;28;20055;-58
2021/09/05 08:21:07;;;;;;;;;;;17.50;94.60;;;;;;5077729;28;20036;-56
2021/09/05 08:23:34;;;;;;;20.33;14.15;;;17.60;94.60;;;;;;5072551;28;19908;-59
2021/09/05 08:26:00;;;;;;;22.92;16.40;;;17.80;94.60;;;;;;5072774;28;20369;-58
2021/09/05 08:28:26;;;;;;;18.10;14.75;;;17.80;94.40;;;;;;5072558;28;20054;-60
2021/09/05 08:30:51;;;;;;;21.63;16.50;;;18.00;94.40;;;;;;5072710;28;20119;-59
2021/09/05 08:33:18;;;;;;;27.02;17.40;;;18.00;94.40;;;;;;5071913;28;20093;-54
2021/09/05 08:35:45;;;;;;;22.98;16.02;;;18.00;94.40;;;;;;5071807;28;20653;-55
2021/09/05 08:38:11;;;;;;;19.98;15.23;;;18.20;94.20;;;;;;5072644;28;20119;-56
2021/09/05 08:40:40;;;;;;;23.38;16.23;;;18.30;94.00;;;;;;5072613;28;20064;-56
2021/09/05 08:43:07;;;;;;;20.02;14.90;;;18.50;93.70;;;;;;5081329;28;20123;-57
2021/09/05 08:45:34;;;;;;;21.23;15.15;;;18.70;93.40;;;;;;5094520;28;20028;-57
2021/09/05 08:48:01;;;;;;;21.17;14.40;;;18.80;93.20;;;;;;5094617;28;20633;-57
2021/09/05 08:50:28;;;;;;;22.27;15.82;;;18.90;93.40;;;;;;5093622;28;20024;-56
2021/09/05 08:52:53;;;;;;;22.52;15.05;;;18.90;92.60;;;;;;5093915;28;20115;-55
2021/09/05 08:55:19;;;;;;;18.52;15.20;;;18.90;92.70;;;;;;5094229;28;20078;-56
2021/09/05 08:57:44;;;;;;;20.90;15.15;;;18.90;92.50;;;;;;5094101;28;20086;-54
2021/09/05 09:00:11;;;;;;;21.33;15.10;;;18.80;92.70;;;;;;5094089;28;20040;-55
2021/09/05 09:03:03;;;;;;;27.95;20.63;;;18.80;92.90;;;;;;5092263;28;20090;-54
2021/09/05 09:05:37;;;;;;;26.75;20.55;;;18.60;93.10;;;;;;5089480;28;20036;-57
2021/09/05 09:08:05;;;;;;;21.67;16.73;;;18.80;93.10;;;;;;5092407;28;20110;-57
2021/09/05 09:10:32;;;;;;;20.23;14.27;;;18.90;92.90;;;;;;5092796;28;20062;-56
2021/09/05 09:12:58;;;;;;;24.35;15.77;;;19.00;93.00;;;;;;5091928;28;20036;-55
2021/09/05 09:15:32;;;;;;;22.95;16.60;;;19.10;92.60;;;;;;5092729;28;20130;-56
2021/09/05 09:18:03;;;;;;;24.00;15.95;;;19.00;92.40;;;;;;5092869;28;20038;-52
2021/09/05 09:20:37;;;;;;;20.38;15.57;;;19.10;92.30;;;;;;5081585;28;20129;-54
2021/09/05 09:23:04;;;;;;;22.52;16.23;;;19.10;92.70;;;;;;5080817;28;20027;-59
2021/09/05 09:25:30;;;;;;;34.65;30.55;;;19.20;92.40;;;;;;5091719;28;20059;-52
2021/09/05 09:27:55;;;;;;;30.80;25.50;;;19.40;92.40;;;;;;5092587;28;20040;-56
2021/09/05 09:30:22;;;;;;;32.28;26.52;;;19.60;92.40;;;;;;5092574;28;20024;-55
2021/09/05 09:32:50;;;;;;;26.02;21.52;;;19.60;92.40;;;;;;5073628;28;20032;-56
2021/09/05 09:35:16;;;;;;;25.27;19.15;;;19.80;92.20;;;;;;5092125;28;20039;-57
2021/09/05 09:37:48;;;;;;;20.05;16.10;;;19.90;91.70;;;;;;5091762;28;20028;-56
2021/09/05 09:40:24;;;;;;;20.63;17.08;;;19.80;91.70;;;;;;5091989;28;20510;-58
2021/09/05 09:42:50;;;;;;;23.45;17.77;;;19.80;92.00;;;;;;5091875;28;20036;-55
2021/09/05 09:45:17;;;;;;;25.33;18.20;;;19.90;92.10;;;;;;5092548;28;20082;-56
2021/09/05 09:47:51;;;;;;;25.38;18.15;;;19.90;91.30;;;;;;5091871;28;20016;-53
2021/09/05 09:50:20;;;;;;;19.75;15.75;;;19.80;91.30;;;;;;5075019;28;20036;-50
2021/09/05 09:52:46;;;;;;;34.00;21.63;;;19.80;91.40;;;;;;5091452;28;20446;-53
2021/09/05 09:55:12;;;;;;;29.80;20.02;;;20.10;91.40;;;;;;5095258;28;20058;-59
2021/09/05 09:57:38;;;;;;;31.92;22.00;;;20.30;91.20;;;;;;5095758;28;20063;-57
2021/09/05 10:00:05;;;;;;;46.33;33.78;;;20.40;91.20;;;;;;5095753;28;20491;-56
2021/09/05 10:02:37;;;;;;;22.77;18.60;;;20.40;90.80;;;;;;5094335;28;20046;-55
2021/09/05 10:05:03;;;;;;;31.60;25.92;;;20.40;90.80;;;;;;5095263;28;20027;-54
2021/09/05 10:07:30;;;;;;;25.58;20.42;;;20.50;90.90;;;;;;5095975;28;20024;-58
2021/09/05 10:09:58;;;;;;;21.65;18.40;;;20.40;91.00;;;;;;5096136;28;20024;-58
2021/09/05 10:12:24;;;;;;;22.33;18.35;;;20.30;90.70;;;;;;5095721;28;20406;-56
2021/09/05 10:14:52;;;;;;;25.00;19.50;;;20.10;91.10;;;;;;5095840;28;20036;-52
2021/09/05 10:17:19;;;;;;;28.42;22.15;;;20.00;91.40;;;;;;5077931;28;20036;-55
2021/09/05 10:19:46;;;;;;;26.83;19.15;;;20.20;91.40;;;;;;5090787;28;20040;-55
2021/09/05 10:22:12;;;;;;;24.80;19.20;;;20.40;91.30;;;;;;5074272;28;20033;-56
2021/09/05 10:24:43;;;;;;;24.33;18.25;;;20.50;91.30;;;;;;5074949;28;20166;-54
2021/09/05 10:27:09;;;;;;;24.27;19.15;;;20.40;91.40;;;;;;5077043;28;20029;-57
2021/09/05 10:29:34;;;;;;;25.17;18.50;;;20.40;91.20;;;;;;5075058;28;20151;-55
2021/09/05 10:32:01;;;;;;;27.20;20.00;;;20.40;91.40;;;;;;5056699;28;20090;-56
2021/09/05 10:34:38;;;;;;;24.50;19.45;;;20.30;91.30;;;;;;5075634;28;20450;-55
2021/09/05 10:37:12;;;;;;;21.52;17.58;;;20.30;91.20;;;;;;5075116;28;20575;-54
2021/09/05 10:40:07;;;;;;;21.33;17.15;;;20.30;91.50;;;;;;5074445;28;20056;-56
2021/09/05 10:42:32;;;;;;;25.70;18.27;;;20.60;91.10;;;;;;5079502;28;20043;-53
2021/09/05 10:45:05;;;;;;;23.67;19.30;;;20.60;91.20;;;;;;5095214;28;20021;-52
2021/09/05 10:47:43;;;;;;;26.48;19.92;;;20.50;91.20;;;;;;5095246;28;20403;-56
2021/09/05 10:50:32;;;;;;;24.77;18.02;;;20.40;91.30;;;;;;5094909;28;20089;-54
2021/09/05 10:53:16;;;;;;;27.98;21.58;;;20.40;91.20;;;;;;5094411;28;20028;-55
2021/09/05 10:56:19;;;;;;;26.85;20.40;;;20.30;91.40;;;;;;5076125;28;20028;-58
2021/09/05 10:58:45;;;;;;;23.02;19.00;;;20.30;91.30;;;;;;5094432;28;20063;-55
2021/09/05 11:01:23;;;;;;;23.77;19.55;;;20.30;91.60;;;;;;5094456;28;20070;-53
2021/09/05 11:04:43;;;;;;;23.40;18.50;;;20.30;91.50;;;;;;5093844;28;20028;-54
2021/09/05 11:07:10;;;;;;;25.65;19.80;;;20.20;91.50;;;;;;5011869;28;20129;-56
2021/09/05 11:09:39;;;;;;;23.67;20.35;;;20.30;91.50;;;;;;5083579;28;20445;-60
2021/09/05 11:12:15;;;;;;;27.27;20.75;;;20.40;91.40;;;;;;5095433;28;20438;-56
2021/09/05 11:14:45;;;;;;;29.95;20.67;;;20.40;91.10;;;;;;5094091;28;20388;-57
2021/09/05 11:17:12;;;;;;;25.60;20.33;;;20.20;91.20;;;;;;5094286;28;20085;-54
2021/09/05 11:19:47;;;;;;;29.30;23.00;;;20.10;91.50;;;;;;5090529;28;20047;-59
2021/09/05 11:22:15;;;;;;;31.95;25.60;;;20.00;91.60;;;;;;5073122;28;20036;-56
2021/09/05 11:24:41;;;;;;;28.80;22.55;;;20.00;91.90;;;;;;5073466;28;20024;-57
2021/09/05 11:27:09;;;;;;;26.65;19.88;;;20.10;91.90;;;;;;5074160;28;20040;-57
2021/09/05 11:29:36;;;;;;;26.13;20.35;;;20.20;91.80;;;;;;5093036;28;20036;-58
2021/09/05 11:32:11;;;;;;;28.02;21.05;;;20.30;91.70;;;;;;5094542;28;20028;-55
2021/09/05 11:34:37;;;;;;;34.30;23.00;;;20.30;91.50;;;;;;5094222;28;20400;-56
2021/09/05 11:37:04;;;;;;;28.65;21.40;;;20.20;91.60;;;;;;5076283;28;20483;-53
2021/09/05 11:39:31;;;;;;;28.50;21.95;;;20.10;91.90;;;;;;5093912;28;20062;-52
2021/09/05 11:41:59;;;;;;;25.55;19.77;;;20.20;92.10;;;;;;5093744;28;20036;-60
2021/09/05 11:44:31;;;;;;;37.47;27.63;;;20.20;91.90;;;;;;5093329;28;20032;-57
2021/09/05 11:47:11;;;;;;;32.38;24.95;;;20.30;91.70;;;;;;5093504;28;20028;-54
2021/09/05 11:49:47;;;;;;;25.40;20.08;;;20.30;91.80;;;;;;5075406;28;20063;-51
2021/09/05 11:52:17;;;;;;;25.98;20.05;;;20.30;91.70;;;;;;5092724;28;20043;-53
2021/09/05 11:54:57;;;;;;;25.33;20.40;;;20.30;91.70;;;;;;5093431;28;20062;-59
2021/09/05 11:57:23;;;;;;;29.65;21.40;;;20.30;91.70;;;;;;5093736;28;20028;-54
2021/09/05 11:59:52;;;;;;;24.48;20.45;;;20.20;91.60;;;;;;5075382;28;20036;-53
2021/09/05 12:02:26;;;;;;;23.77;19.38;;;20.20;92.40;;;;;;5092479;28;20103;-52
2021/09/05 12:04:52;;;;;;;25.20;20.17;;;20.30;92.80;;;;;;5092907;28;20028;-57
2021/09/05 12:07:18;;;;;;;24.02;19.45;;;20.40;92.50;;;;;;5092770;28;20514;-50
2021/09/05 12:09:46;;;;;;;28.65;21.48;;;20.70;92.00;;;;;;5093016;28;20090;-57
2021/09/05 12:12:12;;;;;;;29.77;21.70;;;20.70;91.80;;;;;;5092405;28;20038;-55
2021/09/05 12:14:39;;;;;;;28.70;23.02;;;20.80;91.90;;;;;;5092646;28;20032;-54
2021/09/05 12:17:29;;;;;;;30.00;22.55;;;20.70;91.80;;;;;;5092886;28;20040;-53
2021/09/05 12:20:01;;;;;;;55.95;35.88;;;20.70;91.60;;;;;;5092692;28;20032;-56
2021/09/05 12:22:40;;;;;;;45.72;34.13;;;20.70;91.60;;;;;;5091994;28;20124;-57
2021/09/05 12:25:12;;;;;;;43.22;33.20;;;20.80;91.80;;;;;;5092991;28;20031;-57
2021/09/05 12:27:38;;;;;;;50.25;34.20;;;20.90;91.70;;;;;;5092752;28;20101;-56
2021/09/05 12:30:23;;;;;;;63.90;32.85;;;20.90;91.40;;;;;;5093647;28;20490;-57
2021/09/05 12:33:08;;;;;;;73.80;37.10;;;20.90;91.00;;;;;;5091726;28;20380;-57